Time;durP1;ratioP1;P1;durP2;ratioP2;P2;SDS_P1;SDS_P2;PMS_P1;PMS_P2;Temp;Humidity;BMP_temperature;BMP_pressure;BME280_temperature;BME280_humidity;BME280_pressure;Samples;Min_cycle;Max_cycle;Signal;HPM_P1;HPM_P2
2022/11/10 00:00:16;;;;;;;0.60;0.60;;;9.90;99.90;;;;;;4954658;28;20101;-89
2022/11/10 00:02:42;;;;;;;0.57;0.57;;;9.90;99.90;;;;;;4957759;28;20040;-89
2022/11/10 00:05:09;;;;;;;0.60;0.60;;;9.90;99.90;;;;;;4966223;28;20052;-88
2022/11/10 00:07:36;;;;;;;0.60;0.60;;;9.80;99.90;;;;;;4953478;28;20041;-87
2022/11/10 00:10:02;;;;;;;0.60;0.60;;;9.90;99.90;;;;;;4972302;28;20125;-86
2022/11/10 00:12:29;;;;;;;0.60;0.60;;;9.90;99.90;;;;;;4956200;28;20485;-90
2022/11/10 00:17:39;;;;;;;0.60;0.60;;;9.90;99.90;;;;;;4975826;28;20052;-90
2022/11/10 00:20:05;;;;;;;0.60;0.60;;;9.90;99.90;;;;;;4921542;28;20413;-86
2022/11/10 00:22:33;;;;;;;0.60;0.60;;;9.90;99.90;;;;;;4965926;28;20365;-88
2022/11/10 00:24:59;;;;;;;0.60;0.60;;;9.80;99.90;;;;;;4965177;28;20052;-88
2022/11/10 00:27:25;;;;;;;0.60;0.60;;;9.90;99.90;;;;;;4944769;28;20470;-88
2022/11/10 00:29:53;;;;;;;0.60;0.60;;;9.90;99.90;;;;;;4951503;28;20048;-88
2022/11/10 00:32:19;;;;;;;0.60;0.60;;;9.90;99.90;;;;;;4976595;28;20413;-89
2022/11/10 00:34:45;;;;;;;0.60;0.60;;;9.80;99.90;;;;;;4936002;28;20051;-85
2022/11/10 00:37:11;;;;;;;0.60;0.60;;;9.90;99.90;;;;;;4953820;28;20146;-87
2022/11/10 00:39:37;;;;;;;0.60;0.60;;;9.90;99.90;;;;;;4946421;28;20064;-88
2022/11/10 00:42:03;;;;;;;0.60;0.60;;;9.80;99.90;;;;;;4944109;28;20040;-89
2022/11/10 00:44:29;;;;;;;0.60;0.60;;;9.80;99.90;;;;;;4965536;28;20048;-86
2022/11/10 00:46:55;;;;;;;0.60;0.60;;;9.70;99.90;;;;;;4959723;28;20048;-85
2022/11/10 00:49:20;;;;;;;0.60;0.60;;;9.70;99.90;;;;;;4943985;28;20041;-88
2022/11/10 00:51:46;;;;;;;0.60;0.60;;;9.60;99.90;;;;;;4921036;28;20152;-83
2022/11/10 00:54:12;;;;;;;0.60;0.60;;;9.70;99.90;;;;;;4936560;28;20040;-86
2022/11/10 00:56:38;;;;;;;0.60;0.60;;;9.50;99.90;;;;;;4937658;28;20262;-88
2022/11/10 00:59:03;;;;;;;0.60;0.60;;;9.60;99.90;;;;;;4934149;28;21393;-90
2022/11/10 01:01:32;;;;;;;0.60;0.60;;;9.70;99.90;;;;;;4959889;28;20410;-89
2022/11/10 01:03:57;;;;;;;0.60;0.60;;;9.80;99.90;;;;;;4952448;28;20451;-87
2022/11/10 01:06:23;;;;;;;0.60;0.60;;;9.60;99.90;;;;;;4946393;28;20054;-87
2022/11/10 01:08:49;;;;;;;0.60;0.60;;;9.70;99.90;;;;;;4934725;28;20052;-87
2022/11/10 01:11:17;;;;;;;0.60;0.60;;;9.60;99.90;;;;;;4935942;28;21008;-86
2022/11/10 01:13:43;;;;;;;0.60;0.60;;;9.70;99.90;;;;;;4963315;28;20827;-87
2022/11/10 01:16:15;;;;;;;0.60;0.60;;;9.60;99.90;;;;;;4960573;28;20045;-89
2022/11/10 01:18:43;;;;;;;0.60;0.60;;;9.50;99.90;;;;;;4951451;28;20486;-86
2022/11/10 01:21:10;;;;;;;0.60;0.60;;;9.60;99.90;;;;;;4937683;28;20268;-86
2022/11/10 01:23:36;;;;;;;0.60;0.60;;;9.60;99.90;;;;;;4963696;28;20040;-86
2022/11/10 01:26:06;;;;;;;0.60;0.60;;;9.50;99.90;;;;;;4939969;28;20193;-87
2022/11/10 01:28:36;;;;;;;0.60;0.60;;;9.40;99.90;;;;;;4941003;28;20481;-87
2022/11/10 01:31:07;;;;;;;0.70;0.70;;;9.30;99.90;;;;;;4966834;28;20088;-85
2022/11/10 01:33:33;;;;;;;0.60;0.60;;;9.50;99.90;;;;;;4980741;28;20628;-89
2022/11/10 01:35:59;;;;;;;0.60;0.60;;;9.40;99.90;;;;;;4945148;28;20056;-87
2022/11/10 01:38:31;;;;;;;0.60;0.60;;;9.40;99.90;;;;;;4939280;28;20452;-85
2022/11/10 01:40:57;;;;;;;0.60;0.60;;;9.30;99.90;;;;;;4942528;28;20053;-86
2022/11/10 01:43:25;;;;;;;0.60;0.60;;;9.50;99.90;;;;;;4958473;28;20626;-84
2022/11/10 01:45:52;;;;;;;0.60;0.60;;;9.40;99.90;;;;;;4960465;28;20056;-87
2022/11/10 01:48:36;;;;;;;0.60;0.60;;;9.30;99.90;;;;;;4959806;28;20048;-85
2022/11/10 01:51:08;;;;;;;0.60;0.60;;;9.40;99.90;;;;;;4961250;28;20083;-86
2022/11/10 01:53:37;;;;;;;0.60;0.60;;;9.30;99.90;;;;;;4960245;28;20382;-85
2022/11/10 01:56:04;;;;;;;0.60;0.60;;;9.30;99.90;;;;;;4962156;28;20437;-87
2022/11/10 01:58:38;;;;;;;0.60;0.60;;;9.30;99.90;;;;;;4948927;28;20048;-85
2022/11/10 02:01:08;;;;;;;0.60;0.60;;;9.30;99.90;;;;;;4938178;28;20052;-86
2022/11/10 02:03:57;;;;;;;0.60;0.60;;;9.20;99.90;;;;;;4971189;28;20493;-89
2022/11/10 02:06:26;;;;;;;0.60;0.60;;;9.30;99.90;;;;;;4960605;28;20624;-86
2022/11/10 02:08:53;;;;;;;0.60;0.60;;;9.30;99.90;;;;;;4954538;28;20198;-85
2022/11/10 02:11:20;;;;;;;0.60;0.60;;;9.40;99.90;;;;;;4963829;28;20048;-86
2022/11/10 02:13:46;;;;;;;0.70;0.70;;;9.30;99.90;;;;;;4962980;28;20041;-87
2022/11/10 02:16:12;;;;;;;0.60;0.60;;;9.40;99.90;;;;;;4945989;28;20056;-86
2022/11/10 02:18:38;;;;;;;0.60;0.60;;;9.50;99.90;;;;;;4962178;28;20288;-86
2022/11/10 02:21:08;;;;;;;0.60;0.60;;;9.40;99.90;;;;;;4955527;28;20063;-87
2022/11/10 02:23:34;;;;;;;0.60;0.60;;;9.40;99.90;;;;;;4962108;28;20231;-88
2022/11/10 02:26:02;;;;;;;0.70;0.70;;;9.20;99.90;;;;;;4963399;28;20422;-85
2022/11/10 02:28:31;;;;;;;0.60;0.60;;;9.30;99.90;;;;;;4966921;28;20054;-84
2022/11/10 02:30:57;;;;;;;0.60;0.60;;;9.30;99.90;;;;;;4960509;28;20813;-87
2022/11/10 02:33:23;;;;;;;0.65;0.65;;;9.40;99.90;;;;;;4960926;28;20115;-84
2022/11/10 02:35:49;;;;;;;0.60;0.60;;;9.30;99.90;;;;;;4941951;28;20045;-86
2022/11/10 02:38:15;;;;;;;0.60;0.60;;;9.40;99.90;;;;;;4961005;28;20160;-86
2022/11/10 02:40:41;;;;;;;0.60;0.60;;;9.40;99.90;;;;;;4933564;28;20080;-88
2022/11/10 02:43:11;;;;;;;0.60;0.60;;;9.40;99.90;;;;;;4941821;28;20131;-86
2022/11/10 02:45:40;;;;;;;0.60;0.60;;;9.40;99.90;;;;;;4965965;28;20892;-85
2022/11/10 02:48:07;;;;;;;0.60;0.60;;;9.50;99.90;;;;;;4960211;28;20385;-86
2022/11/10 02:50:33;;;;;;;0.70;0.70;;;9.50;99.90;;;;;;4952191;28;20048;-85
2022/11/10 02:52:59;;;;;;;0.60;0.60;;;9.40;99.90;;;;;;4963950;28;20055;-85
2022/11/10 02:55:25;;;;;;;0.60;0.60;;;9.50;99.90;;;;;;4947508;28;20044;-85
2022/11/10 02:57:51;;;;;;;0.60;0.60;;;9.40;99.90;;;;;;4955829;28;20040;-87
2022/11/10 03:00:17;;;;;;;0.60;0.60;;;9.40;99.90;;;;;;4942614;28;20048;-85
2022/11/10 03:02:43;;;;;;;0.60;0.60;;;9.60;99.90;;;;;;4958911;28;20052;-87
2022/11/10 03:05:09;;;;;;;0.60;0.60;;;9.60;99.90;;;;;;4948204;28;20052;-86
2022/11/10 03:07:35;;;;;;;0.60;0.60;;;9.50;99.90;;;;;;4945279;28;20053;-86
2022/11/10 03:10:01;;;;;;;0.60;0.60;;;9.70;99.90;;;;;;4928174;28;20428;-86
2022/11/10 03:12:27;;;;;;;0.60;0.60;;;9.50;99.90;;;;;;4991503;28;20083;-86
2022/11/10 03:14:53;;;;;;;0.60;0.60;;;9.70;99.90;;;;;;4943856;28;20048;-87
2022/11/10 03:17:19;;;;;;;0.65;0.65;;;9.50;99.90;;;;;;4941292;28;20537;-87
2022/11/10 03:19:44;;;;;;;0.70;0.70;;;9.60;99.90;;;;;;4962906;28;20048;-85
2022/11/10 03:22:10;;;;;;;0.60;0.60;;;9.50;99.90;;;;;;4943768;28;20082;-84
2022/11/10 03:24:39;;;;;;;0.60;0.60;;;9.50;99.90;;;;;;4970328;28;20387;-88
2022/11/10 03:27:05;;;;;;;0.60;0.60;;;9.70;99.90;;;;;;4950838;28;20529;-87
2022/11/10 03:29:31;;;;;;;0.60;0.60;;;9.60;99.90;;;;;;4964771;28;20091;-87
2022/11/10 03:31:56;;;;;;;0.60;0.60;;;9.60;99.90;;;;;;4947352;28;20075;-86
2022/11/10 03:34:22;;;;;;;0.60;0.60;;;9.50;99.90;;;;;;4967058;28;20509;-88
2022/11/10 03:36:48;;;;;;;0.60;0.60;;;9.70;99.90;;;;;;4945917;28;20118;-86
2022/11/10 03:39:14;;;;;;;0.60;0.60;;;9.70;99.90;;;;;;4948706;28;20056;-84
2022/11/10 03:41:40;;;;;;;0.60;0.60;;;9.60;99.90;;;;;;4947151;28;20040;-90
2022/11/10 03:44:08;;;;;;;0.60;0.60;;;9.80;99.90;;;;;;4946776;28;20269;-86
2022/11/10 03:46:34;;;;;;;0.60;0.60;;;9.60;99.90;;;;;;4965424;28;20418;-88
2022/11/10 03:49:00;;;;;;;0.60;0.60;;;9.70;99.90;;;;;;4964446;28;20312;-87
2022/11/10 03:51:26;;;;;;;0.60;0.60;;;9.70;99.90;;;;;;4962806;28;20998;-87
2022/11/10 03:53:51;;;;;;;0.60;0.60;;;9.50;99.90;;;;;;4938470;28;20467;-85
2022/11/10 03:56:17;;;;;;;0.60;0.60;;;9.70;99.90;;;;;;4946233;28;20131;-88
2022/11/10 03:58:43;;;;;;;0.60;0.60;;;9.70;99.90;;;;;;4929859;28;20051;-87
2022/11/10 04:01:09;;;;;;;0.60;0.60;;;9.70;99.90;;;;;;4948542;28;20072;-86
2022/11/10 04:03:35;;;;;;;0.60;0.60;;;9.70;99.90;;;;;;4955092;28;20076;-86
2022/11/10 04:09:00;;;;;;;0.60;0.60;;;9.60;99.90;;;;;;4955376;28;20513;-86
2022/11/10 04:16:57;;;;;;;0.60;0.60;;;9.70;99.90;;;;;;4961812;28;20224;-84
2022/11/10 04:19:24;;;;;;;0.60;0.60;;;9.80;99.90;;;;;;4965809;28;20213;-84
2022/11/10 04:21:50;;;;;;;0.60;0.60;;;9.80;99.90;;;;;;4952812;28;21067;-86
2022/11/10 04:24:16;;;;;;;0.60;0.60;;;9.80;99.90;;;;;;4965297;28;20453;-85
2022/11/10 04:26:43;;;;;;;0.60;0.60;;;9.80;99.90;;;;;;4947701;28;20417;-87
2022/11/10 04:29:11;;;;;;;0.60;0.60;;;9.90;99.90;;;;;;4949106;28;20427;-86
2022/11/10 04:31:40;;;;;;;0.60;0.60;;;9.90;99.90;;;;;;4960298;28;20543;-83
2022/11/10 04:34:09;;;;;;;0.60;0.60;;;9.90;99.90;;;;;;4950426;28;20451;-87
2022/11/10 04:36:37;;;;;;;0.60;0.60;;;9.80;99.90;;;;;;4960943;28;20096;-88
2022/11/10 04:39:04;;;;;;;0.60;0.60;;;9.80;99.90;;;;;;4962360;28;21150;-87
2022/11/10 04:41:31;;;;;;;0.60;0.60;;;9.90;99.90;;;;;;4942725;28;20600;-92
2022/11/10 04:43:58;;;;;;;0.60;0.60;;;9.90;99.90;;;;;;4946868;28;20056;-87
2022/11/10 04:46:37;;;;;;;0.60;0.60;;;9.80;99.90;;;;;;4938078;28;20074;-88
2022/11/10 04:49:05;;;;;;;0.60;0.60;;;9.90;99.90;;;;;;4969759;28;20041;-87
2022/11/10 04:51:33;;;;;;;0.60;0.60;;;9.90;99.90;;;;;;4954273;28;20165;-87
2022/11/10 04:53:59;;;;;;;0.60;0.60;;;9.90;99.90;;;;;;4951262;28;20044;-85
2022/11/10 04:56:26;;;;;;;0.60;0.60;;;9.90;99.90;;;;;;4968961;28;20822;-89
2022/11/10 04:58:53;;;;;;;0.60;0.60;;;10.10;99.90;;;;;;4967913;28;20258;-87
2022/11/10 05:01:23;;;;;;;0.60;0.60;;;10.10;99.90;;;;;;4956216;28;20768;-88
2022/11/10 05:03:50;;;;;;;0.60;0.60;;;10.10;99.90;;;;;;4967058;28;20044;-87
2022/11/10 05:06:17;;;;;;;0.60;0.60;;;10.10;99.90;;;;;;4964014;28;20048;-92
2022/11/10 05:08:44;;;;;;;0.60;0.60;;;10.10;99.90;;;;;;4952463;28;21159;-87
2022/11/10 05:11:10;;;;;;;0.60;0.60;;;10.10;99.90;;;;;;4952813;28;20445;-86
2022/11/10 05:13:36;;;;;;;0.70;0.70;;;10.20;99.90;;;;;;4945307;28;20377;-90
2022/11/10 05:16:03;;;;;;;0.60;0.60;;;10.10;99.90;;;;;;4947104;28;20048;-86
2022/11/10 05:18:28;;;;;;;0.60;0.60;;;10.20;99.90;;;;;;4971066;28;20052;-87
2022/11/10 05:20:54;;;;;;;0.60;0.60;;;10.20;99.90;;;;;;4954688;28;20436;-86
2022/11/10 05:23:40;;;;;;;0.70;0.70;;;10.20;99.90;;;;;;4960423;28;20297;-85
2022/11/10 05:26:08;;;;;;;0.60;0.60;;;10.20;99.90;;;;;;4950012;28;20052;-91
2022/11/10 05:28:34;;;;;;;0.60;0.60;;;10.20;99.90;;;;;;4946963;28;20075;-87
2022/11/10 05:31:00;;;;;;;0.60;0.60;;;10.10;99.90;;;;;;4971473;28;20052;-88
2022/11/10 05:33:26;;;;;;;0.60;0.60;;;10.20;99.90;;;;;;4966917;28;20494;-88
2022/11/10 05:35:51;;;;;;;0.60;0.60;;;10.10;99.90;;;;;;4957867;28;20048;-85
2022/11/10 05:38:17;;;;;;;0.60;0.60;;;10.20;99.90;;;;;;4953862;28;20685;-89
2022/11/10 05:40:43;;;;;;;0.60;0.60;;;10.00;99.90;;;;;;4959563;28;20044;-90
2022/11/10 05:43:10;;;;;;;0.60;0.60;;;10.10;99.90;;;;;;4947272;28;20537;-89
2022/11/10 05:45:36;;;;;;;3.67;3.47;;;10.20;99.90;;;;;;4958675;28;20775;-89
2022/11/10 05:48:04;;;;;;;0.68;0.68;;;10.10;99.90;;;;;;4949251;28;20052;-88
2022/11/10 05:50:30;;;;;;;0.60;0.60;;;10.10;99.90;;;;;;4954860;28;20783;-90
2022/11/10 05:52:55;;;;;;;0.60;0.60;;;10.10;99.90;;;;;;4950662;28;20051;-87
2022/11/10 05:55:24;;;;;;;0.60;0.60;;;10.10;99.90;;;;;;4957636;28;20048;-91
2022/11/10 05:57:52;;;;;;;0.70;0.70;;;10.20;99.90;;;;;;4963894;28;20049;-86
2022/11/10 06:00:20;;;;;;;0.68;0.68;;;10.10;99.90;;;;;;4977915;28;21059;-87
2022/11/10 06:03:00;;;;;;;0.60;0.60;;;10.00;99.90;;;;;;4955201;28;20048;-88
2022/11/10 06:05:26;;;;;;;0.63;0.63;;;10.00;99.90;;;;;;4967265;28;20577;-87
2022/11/10 06:07:56;;;;;;;0.60;0.60;;;10.10;99.90;;;;;;4976456;28;20053;-87
2022/11/10 06:10:24;;;;;;;0.68;0.68;;;10.10;99.90;;;;;;4965677;28;20051;-89
2022/11/10 06:12:53;;;;;;;0.70;0.70;;;10.10;99.90;;;;;;4939871;28;20072;-90
2022/11/10 06:15:19;;;;;;;0.65;0.65;;;10.10;99.90;;;;;;4937314;28;20273;-84
2022/11/10 06:17:45;;;;;;;0.60;0.60;;;10.00;99.90;;;;;;4941589;28;20405;-86
2022/11/10 06:20:13;;;;;;;0.60;0.60;;;10.20;99.90;;;;;;4976795;28;20062;-90
2022/11/10 06:22:40;;;;;;;0.60;0.60;;;10.10;99.90;;;;;;4978408;28;20044;-88
2022/11/10 06:25:08;;;;;;;0.70;0.70;;;10.10;99.90;;;;;;4971804;28;20044;-84
2022/11/10 06:27:34;;;;;;;0.60;0.60;;;10.20;99.90;;;;;;4952650;28;20052;-87
2022/11/10 06:30:00;;;;;;;0.68;0.68;;;10.20;99.90;;;;;;4973555;28;20424;-88
2022/11/10 06:32:25;;;;;;;0.60;0.60;;;10.10;99.90;;;;;;4958869;28;20078;-88
2022/11/10 06:34:51;;;;;;;0.60;0.60;;;10.10;99.90;;;;;;4975116;28;20482;-91
2022/11/10 06:37:17;;;;;;;0.60;0.60;;;10.10;99.90;;;;;;4953943;28;20397;-87
2022/11/10 06:39:43;;;;;;;0.60;0.60;;;10.20;99.90;;;;;;4958909;28;20052;-86
2022/11/10 06:42:09;;;;;;;0.70;0.70;;;10.20;99.90;;;;;;4976767;28;20075;-89
2022/11/10 06:44:35;;;;;;;0.60;0.60;;;10.00;99.90;;;;;;4956205;28;20502;-90
2022/11/10 06:47:01;;;;;;;0.60;0.60;;;10.10;99.90;;;;;;4977095;28;20045;-84
2022/11/10 06:49:27;;;;;;;0.63;0.63;;;10.10;99.90;;;;;;4929600;28;20047;-87
2022/11/10 06:51:52;;;;;;;0.60;0.60;;;10.10;99.90;;;;;;4945982;28;20480;-86
2022/11/10 06:54:18;;;;;;;0.60;0.60;;;10.10;99.90;;;;;;4970651;28;21058;-87
2022/11/10 06:56:44;;;;;;;0.60;0.60;;;10.00;99.90;;;;;;4980261;28;20047;-88
2022/11/10 06:59:10;;;;;;;0.60;0.60;;;10.00;99.90;;;;;;4951976;28;20590;-89
2022/11/10 07:01:35;;;;;;;0.60;0.60;;;10.10;99.90;;;;;;4950044;28;20645;-85
2022/11/10 07:04:02;;;;;;;0.60;0.60;;;10.10;99.90;;;;;;4941725;28;20090;-86
2022/11/10 07:06:28;;;;;;;0.60;0.60;;;10.00;99.90;;;;;;4974136;28;20049;-87
2022/11/10 07:08:57;;;;;;;0.60;0.60;;;10.10;99.90;;;;;;4955039;28;20040;-88
2022/11/10 07:11:23;;;;;;;0.60;0.60;;;10.10;99.90;;;;;;4938220;28;20056;-88
2022/11/10 07:13:51;;;;;;;0.63;0.63;;;10.10;99.90;;;;;;4953442;28;20097;-87
2022/11/10 07:16:17;;;;;;;0.60;0.60;;;10.10;99.90;;;;;;4955485;28;20052;-83
2022/11/10 07:18:42;;;;;;;0.65;0.65;;;10.10;99.90;;;;;;4968172;28;20062;-89
2022/11/10 07:21:11;;;;;;;0.60;0.60;;;10.00;99.90;;;;;;4918817;28;20137;-89
2022/11/10 07:23:36;;;;;;;0.60;0.60;;;10.10;99.90;;;;;;4948579;28;20075;-87
2022/11/10 07:26:05;;;;;;;0.70;0.70;;;10.20;99.90;;;;;;4970296;28;20048;-84
2022/11/10 07:28:30;;;;;;;0.60;0.60;;;10.20;99.90;;;;;;4925164;28;20041;-86
2022/11/10 07:30:56;;;;;;;0.63;0.63;;;10.20;99.90;;;;;;4971813;28;20356;-88
2022/11/10 07:33:22;;;;;;;0.60;0.60;;;10.30;99.90;;;;;;4972095;28;20476;-92
2022/11/10 07:35:54;;;;;;;0.60;0.60;;;10.40;99.90;;;;;;4937971;28;20048;-88
2022/11/10 07:38:20;;;;;;;0.60;0.60;;;10.50;99.90;;;;;;4971846;28;20289;-87
2022/11/10 07:40:52;;;;;;;0.60;0.60;;;10.60;99.90;;;;;;4973249;28;20052;-89
2022/11/10 07:43:19;;;;;;;0.60;0.60;;;10.70;99.90;;;;;;4949400;28;20486;-87
2022/11/10 07:45:45;;;;;;;0.60;0.60;;;10.70;99.90;;;;;;4939570;28;20118;-82
2022/11/10 07:48:11;;;;;;;0.60;0.60;;;10.80;99.90;;;;;;4964272;28;20037;-85
2022/11/10 07:50:37;;;;;;;0.60;0.60;;;10.90;99.90;;;;;;4954830;28;20055;-88
2022/11/10 07:53:08;;;;;;;0.60;0.60;;;11.00;99.90;;;;;;4962626;28;20055;-87
2022/11/10 07:55:36;;;;;;;0.60;0.60;;;11.10;99.90;;;;;;4954010;28;20048;-89
2022/11/10 07:58:02;;;;;;;0.60;0.60;;;11.10;99.90;;;;;;4949944;28;20087;-86
2022/11/10 08:00:29;;;;;;;0.60;0.60;;;11.10;99.90;;;;;;4956223;28;20505;-86
2022/11/10 08:03:17;;;;;;;0.60;0.60;;;11.10;99.90;;;;;;4951716;28;20040;-93
2022/11/10 08:05:43;;;;;;;0.70;0.70;;;11.00;99.90;;;;;;4953330;28;20527;-86
2022/11/10 08:08:10;;;;;;;0.60;0.60;;;11.00;99.90;;;;;;4981982;28;20494;-84
2022/11/10 08:10:36;;;;;;;0.60;0.60;;;11.00;99.90;;;;;;4969822;28;20921;-87
2022/11/10 08:13:05;;;;;;;0.60;0.60;;;11.00;99.90;;;;;;4936952;28;20157;-87
2022/11/10 08:15:33;;;;;;;0.60;0.60;;;11.00;99.90;;;;;;4968476;28;20444;-89
2022/11/10 08:18:04;;;;;;;0.60;0.60;;;11.00;99.90;;;;;;4953040;28;20037;-85
2022/11/10 08:20:30;;;;;;;0.60;0.60;;;10.90;99.90;;;;;;4965075;28;20075;-87
2022/11/10 08:22:58;;;;;;;0.52;0.52;;;10.90;99.90;;;;;;4974627;28;20040;-85
2022/11/10 08:25:28;;;;;;;0.60;0.60;;;11.10;99.90;;;;;;4978137;28;20044;-87
2022/11/10 08:28:01;;;;;;;0.60;0.60;;;11.10;99.90;;;;;;4961206;28;20131;-91
2022/11/10 08:30:28;;;;;;;0.60;0.60;;;11.00;99.90;;;;;;4967029;28;20045;-85
2022/11/10 08:32:58;;;;;;;0.60;0.60;;;11.00;99.90;;;;;;4947302;28;20040;-85
2022/11/10 08:35:26;;;;;;;0.60;0.60;;;11.00;99.90;;;;;;4962926;28;20502;-87
2022/11/10 08:37:52;;;;;;;0.60;0.60;;;11.10;99.90;;;;;;4966012;28;20064;-87
2022/11/10 08:40:19;;;;;;;0.60;0.60;;;11.30;99.90;;;;;;4975731;28;20110;-86
2022/11/10 08:42:46;;;;;;;0.60;0.60;;;11.40;99.90;;;;;;4956005;28;20449;-87
2022/11/10 08:45:13;;;;;;;0.60;0.60;;;11.60;99.90;;;;;;4952853;28;20321;-89
2022/11/10 08:47:39;;;;;;;0.57;0.57;;;11.80;99.90;;;;;;4954378;28;20063;-90
2022/11/10 08:50:06;;;;;;;0.50;0.50;;;11.90;99.90;;;;;;4956000;28;20051;-84
2022/11/10 08:52:32;;;;;;;0.50;0.50;;;12.10;99.90;;;;;;4963440;28;20044;-84
2022/11/10 08:55:00;;;;;;;0.60;0.60;;;12.20;99.90;;;;;;4945536;28;20087;-85
2022/11/10 08:57:31;;;;;;;0.55;0.55;;;12.30;99.90;;;;;;4960603;28;20044;-96
2022/11/10 08:59:57;;;;;;;0.50;0.50;;;12.30;99.90;;;;;;4967396;28;20492;-81
2022/11/10 09:02:23;;;;;;;0.50;0.50;;;12.40;99.90;;;;;;4932611;28;20135;-82
2022/11/10 09:04:49;;;;;;;0.50;0.50;;;12.40;99.90;;;;;;4974538;28;20084;-84
2022/11/10 09:07:14;;;;;;;0.50;0.50;;;12.50;99.90;;;;;;4956214;28;20052;-82
2022/11/10 09:09:40;;;;;;;0.50;0.50;;;12.50;99.90;;;;;;4958507;28;20055;-82
2022/11/10 09:12:06;;;;;;;0.50;0.50;;;12.60;99.90;;;;;;4966922;28;20083;-85
2022/11/10 09:14:32;;;;;;;0.50;0.50;;;12.60;99.90;;;;;;4954671;28;20048;-85
2022/11/10 09:16:58;;;;;;;0.50;0.50;;;12.60;99.90;;;;;;4964370;28;20068;-84
2022/11/10 09:19:24;;;;;;;0.50;0.50;;;12.60;99.90;;;;;;4964834;28;20063;-85
2022/11/10 09:21:52;;;;;;;0.50;0.50;;;12.50;99.90;;;;;;4955694;28;20049;-86
2022/11/10 09:24:18;;;;;;;0.50;0.50;;;12.50;99.90;;;;;;4952648;28;20862;-82
2022/11/10 09:26:46;;;;;;;0.50;0.50;;;12.40;99.90;;;;;;4986031;28;20072;-87
2022/11/10 09:29:12;;;;;;;0.50;0.50;;;12.50;99.90;;;;;;4962065;28;20536;-87
2022/11/10 09:31:37;;;;;;;0.50;0.50;;;12.60;99.90;;;;;;4941410;28;20048;-90
2022/11/10 09:34:03;;;;;;;0.50;0.50;;;12.50;99.90;;;;;;4955746;28;20536;-88
2022/11/10 09:36:29;;;;;;;0.50;0.50;;;12.60;99.90;;;;;;4925584;28;20078;-88
2022/11/10 09:38:55;;;;;;;0.50;0.50;;;12.60;99.90;;;;;;4966487;28;20499;-84
2022/11/10 09:41:21;;;;;;;0.50;0.50;;;12.70;99.90;;;;;;4985654;28;20048;-86
2022/11/10 09:44:09;;;;;;;0.50;0.50;;;12.70;99.90;;;;;;4952233;28;20051;-88
2022/11/10 09:46:40;;;;;;;0.50;0.50;;;12.80;99.90;;;;;;4971297;28;20489;-85
2022/11/10 09:49:17;;;;;;;0.50;0.50;;;12.90;99.90;;;;;;4968944;28;20097;-86
2022/11/10 09:51:44;;;;;;;0.50;0.50;;;13.00;99.90;;;;;;4943036;28;20074;-88
2022/11/10 09:54:34;;;;;;;0.50;0.50;;;13.00;99.90;;;;;;4970421;28;20390;-89
2022/11/10 09:57:02;;;;;;;0.50;0.50;;;13.00;99.90;;;;;;4953766;28;20951;-86
2022/11/10 09:59:31;;;;;;;0.50;0.50;;;12.90;99.90;;;;;;4965314;28;20939;-86
2022/11/10 10:02:13;;;;;;;0.50;0.50;;;13.10;99.90;;;;;;4961755;28;20467;-88
2022/11/10 10:04:51;;;;;;;0.50;0.50;;;13.10;99.90;;;;;;4938533;28;20048;-87
2022/11/10 10:07:26;;;;;;;0.50;0.50;;;13.00;99.90;;;;;;4962793;28;20055;-84
2022/11/10 10:09:56;;;;;;;0.50;0.50;;;13.20;99.90;;;;;;4969080;28;20569;-87
2022/11/10 10:12:28;;;;;;;0.50;0.50;;;13.30;99.90;;;;;;4972788;28;20056;-92
2022/11/10 10:15:13;;;;;;;0.50;0.50;;;13.30;99.90;;;;;;4960576;28;20386;-87
2022/11/10 10:17:50;;;;;;;0.50;0.50;;;13.40;99.90;;;;;;4968562;28;20048;-88
2022/11/10 10:20:32;;;;;;;0.50;0.50;;;13.50;99.90;;;;;;4967399;28;20056;-87
2022/11/10 10:23:10;;;;;;;0.40;0.40;;;13.60;99.90;;;;;;4957334;28;20050;-90
2022/11/10 10:25:38;;;;;;;0.50;0.50;;;13.50;99.90;;;;;;4978779;28;20052;-83
2022/11/10 10:28:30;;;;;;;0.50;0.50;;;13.60;99.90;;;;;;4958333;28;20553;-89
2022/11/10 10:31:13;;;;;;;0.50;0.50;;;13.80;99.90;;;;;;4960690;28;20491;-85
2022/11/10 10:33:39;;;;;;;0.50;0.50;;;13.80;99.90;;;;;;4973788;28;20069;-88
2022/11/10 10:36:18;;;;;;;0.50;0.50;;;13.90;99.90;;;;;;4954931;28;20131;-84
2022/11/10 10:38:46;;;;;;;0.50;0.50;;;14.10;99.90;;;;;;4962740;28;20410;-89
2022/11/10 10:41:36;;;;;;;0.50;0.50;;;14.10;99.90;;;;;;4954499;28;20102;-94
2022/11/10 10:44:16;;;;;;;0.50;0.50;;;14.10;99.90;;;;;;4949098;28;20591;-82
2022/11/10 10:47:01;;;;;;;0.50;0.50;;;14.20;99.90;;;;;;4989882;28;20071;-87
2022/11/10 10:49:37;;;;;;;0.50;0.50;;;14.10;99.90;;;;;;4967533;28;20841;-86
2022/11/10 10:52:25;;;;;;;0.50;0.50;;;14.20;99.90;;;;;;4993381;28;20044;-86
2022/11/10 10:55:07;;;;;;;0.50;0.50;;;14.00;99.90;;;;;;4985813;28;20616;-91
2022/11/10 10:57:33;;;;;;;0.50;0.50;;;14.10;99.90;;;;;;4978066;28;20416;-86
2022/11/10 11:00:20;;;;;;;0.50;0.50;;;14.10;99.90;;;;;;4948589;28;20070;-86
2022/11/10 11:03:04;;;;;;;0.40;0.40;;;14.10;99.90;;;;;;4955886;28;20422;-84
2022/11/10 11:05:30;;;;;;;;;;;14.20;99.90;;;;;;4970067;28;20052;-85
2022/11/10 11:07:59;;;;;;;0.50;0.50;;;14.20;99.90;;;;;;4958093;28;19936;-86
2022/11/10 11:10:47;;;;;;;0.50;0.50;;;14.40;99.90;;;;;;4974638;28;20040;-94
2022/11/10 11:13:13;;;;;;;0.50;0.50;;;14.20;99.90;;;;;;4988111;28;20492;-85
2022/11/10 11:15:39;;;;;;;0.50;0.50;;;14.10;99.90;;;;;;5000173;28;20406;-83
2022/11/10 11:18:16;;;;;;;0.50;0.50;;;14.20;99.90;;;;;;4967882;28;20048;-84
2022/11/10 11:20:42;;;;;;;0.50;0.50;;;14.40;99.90;;;;;;4940690;28;20464;-86
2022/11/10 11:23:32;;;;;;;0.50;0.50;;;14.60;99.90;;;;;;4963737;28;20706;-85
2022/11/10 11:26:09;;;;;;;0.50;0.50;;;14.70;99.90;;;;;;4962975;28;20553;-85
2022/11/10 11:28:53;;;;;;;0.50;0.50;;;14.90;99.90;;;;;;4967883;28;20037;-85
2022/11/10 11:31:44;;;;;;;0.50;0.50;;;15.00;99.90;;;;;;4972875;28;20056;-91
2022/11/10 11:34:57;;;;;;;0.50;0.50;;;15.00;99.90;;;;;;4968428;28;20551;-87
2022/11/10 11:37:50;;;;;;;0.50;0.50;;;15.20;99.90;;;;;;4959762;28;20600;-92
2022/11/10 11:40:34;;;;;;;0.50;0.50;;;15.40;99.90;;;;;;4953543;28;20062;-87
2022/11/10 11:43:37;;;;;;;0.50;0.50;;;15.20;99.90;;;;;;4963405;28;20410;-84
2022/11/10 11:46:07;;;;;;;0.50;0.50;;;15.30;99.90;;;;;;4966728;28;20040;-82
2022/11/10 11:48:51;;;;;;;0.47;0.47;;;15.50;99.90;;;;;;4963849;28;20590;-82
2022/11/10 11:51:36;;;;;;;;;;;15.50;99.90;;;;;;4960897;28;20037;-87
2022/11/10 11:54:10;;;;;;;0.50;0.50;;;15.70;99.90;;;;;;4975691;28;20393;-93
2022/11/10 11:56:48;;;;;;;0.40;0.40;;;16.00;99.90;;;;;;4945815;28;20048;-84
2022/11/10 11:59:42;;;;;;;0.50;0.50;;;16.00;99.90;;;;;;4965730;28;20049;-82
2022/11/10 12:02:30;;;;;;;0.50;0.50;;;16.20;99.90;;;;;;4965116;28;20287;-81
2022/11/10 12:05:25;;;;;;;0.40;0.40;;;15.90;99.90;;;;;;4971602;28;20052;-84
2022/11/10 12:08:04;;;;;;;0.50;0.50;;;15.80;99.90;;;;;;4974086;28;20116;-84
2022/11/10 12:11:04;;;;;;;0.50;0.50;;;15.30;99.90;;;;;;4964079;28;20048;-87
2022/11/10 12:13:45;;;;;;;0.50;0.50;;;15.20;99.90;;;;;;4945579;28;20881;-90
2022/11/10 12:16:25;;;;;;;0.50;0.50;;;15.20;99.90;;;;;;4957412;28;20123;-90
2022/11/10 12:19:23;;;;;;;0.40;0.40;;;15.10;99.90;;;;;;4965458;28;20174;-85
2022/11/10 12:22:05;;;;;;;0.50;0.50;;;15.10;99.90;;;;;;4968565;28;20131;-92
2022/11/10 12:25:04;;;;;;;0.50;0.50;;;15.10;99.90;;;;;;4953641;28;20036;-92
2022/11/10 12:27:36;;;;;;;0.45;0.45;;;15.10;99.90;;;;;;4969915;28;20058;-88
2022/11/10 12:30:09;;;;;;;0.40;0.40;;;15.00;99.90;;;;;;4970825;28;20544;-89
2022/11/10 12:33:04;;;;;;;0.47;0.47;;;15.00;99.90;;;;;;4970342;28;20161;-88
2022/11/10 12:35:39;;;;;;;0.50;0.50;;;15.20;99.90;;;;;;4968120;28;20441;-86
2022/11/10 12:38:13;;;;;;;0.40;0.40;;;15.00;99.90;;;;;;4975515;28;20482;-91
2022/11/10 12:40:41;;;;;;;;;;;15.00;99.90;;;;;;4955760;28;20476;-91
2022/11/10 12:43:48;;;;;;;0.50;0.50;;;14.90;99.90;;;;;;4947207;28;20510;-91
2022/11/10 12:46:14;;;;;;;0.50;0.50;;;15.00;99.90;;;;;;4948936;28;20113;-88
2022/11/10 12:48:52;;;;;;;0.40;0.40;;;14.90;99.90;;;;;;4944469;28;20045;-82
2022/11/10 12:51:31;;;;;;;0.40;0.40;;;14.90;99.90;;;;;;4958713;28;20048;-87
2022/11/10 12:53:57;;;;;;;0.43;0.43;;;14.90;99.90;;;;;;4958755;28;20041;-86
2022/11/10 12:56:35;;;;;;;0.40;0.40;;;15.00;99.90;;;;;;4970038;28;20849;-95
2022/11/10 12:59:19;;;;;;;0.40;0.40;;;14.90;99.90;;;;;;4977182;28;20132;-89
2022/11/10 13:01:48;;;;;;;0.50;0.50;;;14.80;99.90;;;;;;4976175;28;20517;-87
2022/11/10 13:04:17;;;;;;;0.40;0.40;;;14.70;99.90;;;;;;4955887;28;20208;-85
2022/11/10 13:06:52;;;;;;;0.50;0.50;;;14.60;99.90;;;;;;4970686;28;20079;-89
2022/11/10 13:09:26;;;;;;;0.47;0.47;;;14.60;99.90;;;;;;4953255;28;20044;-85
2022/11/10 13:12:14;;;;;;;0.50;0.50;;;14.60;99.90;;;;;;4967242;28;20590;-89
2022/11/10 13:14:40;;;;;;;0.40;0.40;;;14.70;99.90;;;;;;4973079;28;20113;-84
2022/11/10 13:17:08;;;;;;;0.50;0.50;;;14.80;99.90;;;;;;4952307;28;20131;-88